Flight Track Log - Related Links

Times and Time Zones

All times are in EDT time to prevent confusion due to time zone crossing. See the N697BJ flight status page for this flight to view local times or setup timezone preferences in your user account.


Time Position Orientation Groundspeed Altitude Reporting Facility
EDT Latitude Longitude Course Direction KTS MPH feet Rate Location/Type
Sun 12:26:29 AM 44.8922 -93.2469 279° West 190 219 1,500  Level FAA TRACON SMA TRACON (SMA)
Sun 12:26:49 AM 44.8956 -93.2761 279° West 198 228 2,300 1,950 Climbing FAA TRACON SMA TRACON (SMA)
Sun 12:27:09 AM 44.8922 -93.2994 259° West 200 230 2,800 1,500 Climbing FAA TRACON SMA TRACON (SMA)
Sun 12:27:29 AM 44.8878 -93.3244 256° West 208 239 3,300 1,650 Climbing FAA TRACON SMA TRACON (SMA)
Sun 12:27:49 AM 44.8828 -93.3572 258° West 221 254 3,900 1,800 Climbing FAA TRACON SMA TRACON (SMA)
Sun 12:28:09 AM 44.8742 -93.3817 244° Southwest 232 267 4,500 1,950 Climbing FAA TRACON SMA TRACON (SMA)
Sun 12:28:29 AM 44.8575 -93.3950 210° Southwest 237 273 5,200 1,950 Climbing FAA TRACON SMA TRACON (SMA)
Sun 12:28:49 AM 44.8306 -93.4028 192° South 250 288 5,800 2,550 Climbing FAA TRACON SMA TRACON (SMA)
Sun 12:29:09 AM 44.8092 -93.4097 193° South 260 299 6,900 2,400 Climbing FAA TRACON SMA TRACON (SMA)
Sun 12:29:29 AM 44.7872 -93.4181 195° South 262 302 7,400 2,250 Climbing FAA TRACON SMA TRACON (SMA)
Sun 12:29:49 AM 44.7597 -93.4314 199° South 271 312 8,400 2,850 Climbing FAA TRACON SMA TRACON (SMA)
Sun 12:30:09 AM 44.7389 -93.4450 205° Southwest 271 312 9,300 2,700 Climbing FAA TRACON SMA TRACON (SMA)
Sun 12:30:29 AM 44.7183 -93.4594 207° Southwest 268 308 10,200 3,300 Climbing FAA TRACON SMA TRACON (SMA)
Sun 12:30:49 AM 44.6922 -93.4731 200° South 265 305 11,500 2,512 Climbing FAA TRACON SMA TRACON (SMA)
Sun 12:31:12 AM 44.6706 -93.4800 193° South 261 300 12,000 1,500 Climbing FAA TRACON SMA TRACON (SMA)
Sun 12:31:33 AM 44.6450 -93.4953 203° Southwest 261 300 12,600 1,622 Climbing FAA TRACON SMA TRACON (SMA)
Sun 12:31:49 AM 44.6242 -93.5081 204° Southwest 264 304 13,000 1,333 Climbing FAA TRACON SMA TRACON (SMA)
Sun 12:32:09 AM 44.6028 -93.5214 204° Southwest 268 308 13,400 1,050 Climbing FAA TRACON SMA TRACON (SMA)
Sun 12:32:29 AM 44.5806 -93.5358 205° Southwest 279 321 13,700 450 Climbing FAA TRACON SMA TRACON (SMA)
Sun 12:32:49 AM 44.5511 -93.5553 205° Southwest 303 349 13,700 150 Level FAA TRACON SMA TRACON (SMA)
Sun 12:33:09 AM 44.5250 -93.5711 203° Southwest 327 376 13,800 750 Climbing FAA TRACON SMA TRACON (SMA)
Sun 12:33:29 AM 44.4975 -93.5878 203° Southwest 345 397 14,200 1,800 Climbing FAA TRACON SMA TRACON (SMA)
Sun 12:33:49 AM 44.4628 -93.6103 205° Southwest 357 411 15,000 2,400 Climbing FAA TRACON SMA TRACON (SMA)
Sun 12:34:09 AM 44.4336 -93.6242 199° South 360 414 15,800 2,250 Climbing FAA TRACON SMA TRACON (SMA)
Sun 12:34:29 AM 44.4056 -93.6408 203° Southwest 356 410 16,500 1,350 Climbing FAA TRACON SMA TRACON (SMA)
Sun 12:34:49 AM 44.3703 -93.6614 203° Southwest 358 412 16,700 600 Climbing FAA TRACON SMA TRACON (SMA)
Sun 12:35:09 AM 44.3408 -93.6778 202° Southwest 366 421 16,900 600 Climbing FAA TRACON SMA TRACON (SMA)
Sun 12:35:29 AM 44.3111 -93.6950 203° Southwest 375 432 17,100 1,200 Climbing FAA TRACON SMA TRACON (SMA)
Sun 12:35:49 AM 44.2739 -93.7161 202° Southwest 376 433 17,700 1,650 Climbing FAA TRACON SMA TRACON (SMA)
Sun 12:36:09 AM 44.2458 -93.7361 207° Southwest 371 427 18,200 1,500 Climbing FAA TRACON SMA TRACON (SMA)
Sun 12:36:29 AM 44.2183 -93.7575 209° Southwest 368 423 18,700 1,650 Climbing FAA TRACON SMA TRACON (SMA)
Sun 12:36:49 AM 44.1847 -93.7839 209° Southwest 362 417 19,300 1,650 Climbing FAA TRACON SMA TRACON (SMA)
Sun 12:37:09 AM 44.1586 -93.8061 211° Southwest 358 412 19,800 1,500 Climbing FAA TRACON SMA TRACON (SMA)
Sun 12:37:29 AM 44.1336 -93.8297 214° Southwest 355 409 20,300 1,350 Climbing FAA TRACON SMA TRACON (SMA)
Sun 12:37:49 AM 44.1031 -93.8608 216° Southwest 354 407 20,700 1,050 Climbing FAA TRACON SMA TRACON (SMA)
Sun 12:38:09 AM 44.0775 -93.8833 212° Southwest 353 406 21,000 632 Climbing FAA TRACON SMA TRACON (SMA)
Sun 12:38:27 AM 44.0628 -93.8928 205° Southwest 355 409 21,100 692 Climbing Minneapolis Center
Sun 12:39:27 AM 43.9803 -93.9711 214° Southwest 357 411 21,900 750 Climbing Minneapolis Center
Sun 12:40:27 AM 43.8961 -94.0511 214° Southwest 366 421 22,600 650 Climbing Minneapolis Center
Sun 12:41:27 AM 43.8269 -94.1578 228° Southwest 373 429 23,200 694 Climbing Minneapolis Center
Sun 12:42:28 AM 43.7589 -94.2939 235° Southwest 377 434 24,000 893 Climbing Minneapolis Center
Sun 12:43:28 AM 43.7067 -94.4233 241° Southwest 384 442 25,000 1,000 Climbing Minneapolis Center
Sun 12:44:28 AM 43.6625 -94.5589 246° West 387 445 26,000 1,100 Climbing Minneapolis Center
Sun 12:45:28 AM 43.6192 -94.6961 246° West 389 448 27,200 1,250 Climbing Minneapolis Center
Sun 12:46:28 AM 43.5686 -94.8275 242° Southwest 388 447 28,500 1,289 Climbing Minneapolis Center
Sun 12:47:29 AM 43.5156 -94.9550 240° Southwest 384 442 29,800 1,190 Climbing Minneapolis Center
Sun 12:48:29 AM 43.4600 -95.0739 237° Southwest 373 429 30,900 950 Climbing Minneapolis Center
Sun 12:49:29 AM 43.4008 -95.1881 235° Southwest 367 422 31,700 850 Climbing Minneapolis Center
Sun 12:50:29 AM 43.3403 -95.3014 234° Southwest 368 423 32,600 900 Climbing Minneapolis Center
Sun 12:51:29 AM 43.2808 -95.4131 234° Southwest 363 418 33,500 645 Climbing Minneapolis Center
Sun 12:52:30 AM 43.2200 -95.5236 233° Southwest 363 418 33,900 248 Climbing Minneapolis Center
Sun 12:53:30 AM 43.1589 -95.6392 234° Southwest 370 426 34,000 50 Climbing Minneapolis Center
Sun 12:54:30 AM 43.0969 -95.7608 235° Southwest 383 441 34,000  Level Minneapolis Center
Sun 12:55:30 AM 43.0408 -95.8858 238° Southwest 384 442 34,000  Level Minneapolis Center
Sun 12:56:30 AM 42.9892 -96.0147 241° Southwest 385 443 34,000  Level Minneapolis Center
Sun 12:57:31 AM 42.9378 -96.1489 242° Southwest 391 450 34,000  Level Minneapolis Center
Sun 12:58:31 AM 42.8831 -96.2717 239° Southwest 381 438 34,000  Level Minneapolis Center
Sun 12:59:31 AM 42.8247 -96.3936 237° Southwest 382 440 34,000  Level Minneapolis Center
Sun 01:00:31 AM 42.7611 -96.5103 233° Southwest 383 441 34,000  Level Minneapolis Center
Sun 01:01:31 AM 42.6969 -96.6278 233° Southwest 386 444 34,000  Level Minneapolis Center
Sun 01:02:32 AM 42.6439 -96.7261 234° Southwest 386 444 34,000  Level Minneapolis Center
Sun 01:03:32 AM 42.5789 -96.8425 233° Southwest 387 445 34,000  Level Minneapolis Center
Sun 01:04:32 AM 42.5142 -96.9586 233° Southwest 386 444 34,000  Level Minneapolis Center
Sun 01:05:32 AM 42.4525 -97.0781 235° Southwest 388 447 34,000  Level Minneapolis Center
Sun 01:06:32 AM 42.3944 -97.1981 237° Southwest 385 443 34,000  Level Minneapolis Center
Sun 01:07:33 AM 42.3467 -97.3228 243° Southwest 379 436 34,000  Level Minneapolis Center
Sun 01:08:33 AM 42.2903 -97.4725 243° Southwest 375 432 34,000  Level Minneapolis Center
Sun 01:09:33 AM 42.2447 -97.5983 244° Southwest 375 432 34,000  Level Minneapolis Center
Sun 01:10:33 AM 42.1950 -97.7203 241° Southwest 373 429 34,000  Level Minneapolis Center
Sun 01:11:33 AM 42.1492 -97.8228 239° Southwest 374 430 34,000  Level Minneapolis Center
Sun 01:12:33 AM 42.0872 -97.9594 239° Southwest 374 430 34,000  Level Minneapolis Center
Sun 01:13:34 AM 42.0489 -98.0867 248° West 370 426 34,000  Level Minneapolis Center
Sun 01:14:34 AM 41.9992 -98.1878 237° Southwest 371 427 34,000  Level Minneapolis Center
Sun 01:15:34 AM 41.9517 -98.3108 243° Southwest 371 427 34,000  Level Minneapolis Center
Sun 01:16:34 AM 41.9056 -98.4386 244° Southwest 376 433 34,000  Level Minneapolis Center
Sun 01:17:34 AM 41.8581 -98.5661 243° Southwest 382 440 34,000  Level Minneapolis Center
Sun 01:18:35 AM 41.8097 -98.6947 243° Southwest 386 444 34,000  Level Minneapolis Center
Sun 01:19:35 AM 41.7561 -98.8244 241° Southwest 396 456 34,000  Level Minneapolis Center
Sun 01:20:35 AM 41.7019 -98.9561 241° Southwest 403 464 34,000  Level Minneapolis Center
Sun 01:21:35 AM 41.6572 -99.1281 251° West 412 474 34,000  Level Minneapolis Center
Sun 01:22:01 AM 41.6447 -99.1886 255° West 419 482 34,000  Level Denver Center
Sun 01:23:01 AM 41.6158 -99.3375 255° West 418 481 34,000  Level Denver Center
Sun 01:24:02 AM 41.5839 -99.4831 254° West 413 475 34,000  Level Denver Center
Sun 01:25:02 AM 41.5525 -99.6253 254° West 404 465 34,000  Level Denver Center
Sun 01:26:02 AM 41.5181 -99.7642 252° West 397 457 34,000  Level Denver Center
Sun 01:27:02 AM 41.4828 -99.9100 252° West 393 452 34,000  Level Denver Center
Sun 01:28:03 AM 41.4489 -100.0403 251° West 390 449 34,000  Level Denver Center
Sun 01:29:03 AM 41.4156 -100.1700 251° West 388 447 34,000  Level Denver Center
Sun 01:30:03 AM 41.3828 -100.3003 252° West 388 447 34,000  Level Denver Center
Sun 01:31:03 AM 41.3431 -100.4517 251° West 390 449 34,000  Level Denver Center
Sun 01:32:04 AM 41.3106 -100.5814 252° West 388 447 34,000  Level Denver Center
Sun 01:33:04 AM 41.2756 -100.7119 250° West 392 451 34,000  Level Denver Center
Sun 01:34:04 AM 41.2372 -100.8631 251° West 391 450 34,000  Level Denver Center
Sun 01:35:05 AM 41.1978 -100.9892 247° West 389 448 34,000  Level Denver Center
Sun 01:36:05 AM 41.1508 -101.1114 243° Southwest 390 449 34,000  Level Denver Center
Sun 01:37:05 AM 41.0983 -101.2547 244° Southwest 391 450 34,000  Level Denver Center
Sun 01:38:06 AM 41.0522 -101.3792 244° Southwest 394 453 34,000  Level Denver Center
Sun 01:39:18 AM 41.0081 -101.5067 245° Southwest 399 459 34,000  Level Denver Center
Sun 01:40:18 AM 40.9608 -101.6808 250° West 396 456 34,000  Level Denver Center
Sun 01:41:18 AM 40.9308 -101.8122 253° West 391 450 34,000  Level Denver Center
Sun 01:42:19 AM 40.9011 -101.9425 253° West 389 448 34,000 50 Level Denver Center
Sun 01:43:19 AM 40.8683 -102.0928 254° West 382 440 34,100  Climbing Denver Center
Sun 01:44:19 AM 40.8406 -102.2197 254° West 378 435 34,000 -200 Descending Denver Center
Sun 01:45:19 AM 40.8133 -102.3456 254° West 374 430 33,700 -744 Descending Denver Center
Sun 01:46:20 AM 40.7686 -102.4942 248° West 391 450 32,500 -1,140 Descending Denver Center
Sun 01:47:20 AM 40.7297 -102.6206 248° West 391 450 31,400 -1,050 Descending Denver Center
Sun 01:48:20 AM 40.6925 -102.7442 248° West 381 438 30,400 -942 Descending Denver Center
Sun 01:49:21 AM 40.6544 -102.8714 249° West 358 412 29,500 -893 Descending Denver Center
Sun 01:50:21 AM 40.6097 -102.9878 243° Southwest 355 409 28,600 -800 Descending Denver Center
Sun 01:51:21 AM 40.5639 -103.1033 242° Southwest 356 410 27,900 -750 Descending Denver Center
Sun 01:52:21 AM 40.5150 -103.2197 241° Southwest 360 414 27,100 -793 Descending Denver Center
Sun 01:53:22 AM 40.4697 -103.3367 243° Southwest 357 411 26,300 -1,140 Descending Denver Center
Sun 01:54:22 AM 40.4283 -103.4589 246° West 361 415 24,800 -1,800 Descending Denver Center
Sun 01:55:22 AM 40.3911 -103.5864 249° West 369 425 22,700 -2,231 Descending Denver Center
Sun 01:56:23 AM 40.3617 -103.7083 252° West 350 403 20,300 -2,579 Descending Denver Center
Sun 01:57:23 AM 40.3375 -103.8247 255° West 336 387 17,500 -2,700 Descending Denver Center
Sun 01:58:23 AM 40.3128 -103.9375 254° West 323 372 14,900 -2,550 Descending Denver Center
Sun 01:59:23 AM 40.2719 -104.0400 242° Southwest 321 369 12,400 -1,785 Descending Denver Center
Sun 02:00:24 AM 40.2292 -104.1414 241° Southwest 317 365 11,300 -694 Descending Denver Center
Sun 02:01:24 AM 40.1800 -104.2414 237° Southwest 326 375 11,000 -150 Descending Denver Center
Sun 02:02:24 AM 40.1144 -104.3108 219° Southwest 297 342 11,000  Level Denver Center
Sun 02:03:25 AM 40.0508 -104.3856 222° Southwest 305 351 11,000  Level Denver Center
Sun 02:04:05 AM 40.0000 -104.4333 216° Southwest 324 373 11,000  Level Denver TRACON
Sun 02:05:11 AM 39.9333 -104.5167 224° Southwest 319 367 11,000  Level Denver TRACON
Sun 02:06:17 AM 39.8667 -104.6000 224° Southwest 306 352 11,000  Level Denver TRACON
Sun 02:07:17 AM 39.8000 -104.6833 224° Southwest 329 379 11,000 -474 Level Denver TRACON
Sun 02:08:11 AM 39.7500 -104.7667 232° Southwest 302 348 10,100 -1,130 Descending Denver TRACON
Sun 02:08:26 AM 39.7517 -104.7897 275° West 289 333 9,700 -1,120 Descending Denver Center
Sun 02:09:26 AM 39.7556 -104.8767 273° West 233 268 8,700 -1,041 Descending Denver Center
Sun 02:10:27 AM 39.7961 -104.9239 318° Northwest 197 227 7,600 -843 Descending Denver Center
Sun 02:11:27 AM 39.8314 -104.9717 314° West 182 209 7,000 -300 Descending Denver Center
Sun 02:12:27 AM 39.8597 -105.0247 305° West 176 203 7,000 -397 Level Denver Center
Sun 02:13:28 AM 39.8819 -105.0647 306° West 141 162 6,200 -744 Descending Denver Center
Sun 02:14:28 AM 39.9028 -105.1058 303° West 135 155 5,500 -278 Descending Denver Center
Sun 02:15:59 AM 39.9167 -105.1333 303° West 132 152 5,500  Level Denver TRACON
Sun 02:17:00 AM 39.9000 -105.1167 143° Southeast  Level FlightAware Approximate

Login

Don't have an account? Register now (free) for customized features, flight alerts, and more!